TimeEST,TemperatureF,Dew PointF,Humidity,Sea Level PressureIn,VisibilityMPH,Wind Direction,Wind SpeedMPH,Gust SpeedMPH,PrecipitationIn,Events,Conditions,WindDirDegrees,DateUTC
12:53 AM,61.0,57.9,90,30.04,10.0,West,4.6,-,N/A,,Mostly Cloudy,280,2012-12-06 05:53:00
1:53 AM,63.0,61.0,93,30.03,10.0,WSW,3.5,-,0.00,,Overcast,250,2012-12-06 06:53:00
2:53 AM,62.1,60.1,93,30.01,10.0,Calm,Calm,-,N/A,,Partly Cloudy,0,2012-12-06 07:53:00
3:53 AM,62.1,61.0,96,30.01,10.0,West,4.6,-,N/A,,Partly Cloudy,260,2012-12-06 08:53:00
4:53 AM,64.0,63.0,96,30.01,10.0,Calm,Calm,-,N/A,,Mostly Cloudy,0,2012-12-06 09:53:00
5:53 AM,62.1,61.0,96,30.00,10.0,WNW,3.5,-,N/A,,Mostly Cloudy,300,2012-12-06 10:53:00
6:53 AM,64.9,64.0,97,30.01,10.0,ESE,8.1,-,N/A,,Scattered Clouds,120,2012-12-06 11:53:00
7:53 AM,66.9,66.9,100,30.02,10.0,Calm,Calm,-,0.01,Rain,Light Rain,0,2012-12-06 12:53:00
8:53 AM,73.0,68.0,84,30.03,10.0,Calm,Calm,-,0.00,,Scattered Clouds,0,2012-12-06 13:53:00
9:53 AM,73.9,66.9,79,30.04,10.0,NNE,6.9,-,N/A,,Scattered Clouds,30,2012-12-06 14:53:00
10:43 AM,78.8,68.0,69,30.03,10.0,NNE,10.4,17.3,N/A,,Mostly Cloudy,20,2012-12-06 15:43:00
10:53 AM,79.0,68.0,69,30.03,10.0,NE,12.7,19.6,N/A,,Mostly Cloudy,40,2012-12-06 15:53:00
11:53 AM,75.0,66.0,73,30.01,10.0,ENE,10.4,-,0.00,,Mostly Cloudy,60,2012-12-06 16:53:00
12:53 PM,73.9,66.9,79,29.98,10.0,ENE,10.4,-,0.01,Rain,Light Rain,70,2012-12-06 17:53:00
1:53 PM,75.9,68.0,76,29.94,10.0,East,8.1,-,0.00,,Scattered Clouds,100,2012-12-06 18:53:00
2:53 PM,75.0,66.9,76,29.94,10.0,East,6.9,-,N/A,,Scattered Clouds,80,2012-12-06 19:53:00
3:53 PM,75.0,66.0,73,29.95,10.0,ENE,9.2,-,N/A,,Clear,70,2012-12-06 20:53:00
4:53 PM,73.0,66.9,81,29.95,10.0,NE,5.8,-,N/A,,Scattered Clouds,40,2012-12-06 21:53:00
5:20 PM,71.6,66.2,83,29.96,10.0,NE,5.8,-,N/A,,Mostly Cloudy,40,2012-12-06 22:20:00
5:30 PM,71.6,66.2,83,29.96,10.0,ENE,4.6,-,N/A,,Scattered Clouds,60,2012-12-06 22:30:00
5:53 PM,70.0,66.0,87,29.96,10.0,Calm,Calm,-,N/A,,Scattered Clouds,0,2012-12-06 22:53:00
6:33 PM,69.8,66.2,88,29.96,10.0,ENE,6.9,-,N/A,,Mostly Cloudy,60,2012-12-06 23:33:00
6:40 PM,69.8,66.2,88,29.97,10.0,ESE,6.9,-,0.00,Rain-Thunderstorm,Light Rain,110,2012-12-06 23:40:00
6:53 PM,68.0,66.9,96,29.97,5.0,Calm,Calm,-,0.03,Rain-Thunderstorm,Light Rain,0,2012-12-06 23:53:00
7:53 PM,66.9,66.0,97,29.99,10.0,NNE,3.5,-,0.01,Rain-Thunderstorm,Light Rain,30,2012-12-07 00:53:00
8:53 PM,63.0,63.0,100,29.98,10.0,NNW,3.5,-,0.00,Thunderstorm,Clear,340,2012-12-07 01:53:00
9:00 PM,62.6,62.6,100,29.98,1.2,NNW,3.5,-,N/A,,Clear,330,2012-12-07 02:00:00
9:41 PM,64.4,64.4,100,29.98,3.0,SW,4.6,-,N/A,,Clear,230,2012-12-07 02:41:00
9:53 PM,64.0,63.0,96,29.98,8.0,WSW,4.6,-,N/A,,Clear,250,2012-12-07 02:53:00
10:33 PM,62.6,62.6,100,29.97,1.8,Calm,Calm,-,N/A,,Clear,0,2012-12-07 03:33:00
10:42 PM,62.6,62.6,100,29.97,3.0,Calm,Calm,-,N/A,,Clear,0,2012-12-07 03:42:00
10:53 PM,62.1,62.1,100,29.97,2.5,North,4.6,-,N/A,,Clear,360,2012-12-07 03:53:00
11:05 PM,60.8,60.8,100,29.97,8.0,NW,4.6,-,N/A,,Clear,320,2012-12-07 04:05:00
11:53 PM,63.0,63.0,100,29.97,10.0,Calm,Calm,-,N/A,,Scattered Clouds,0,2012-12-07 04:53:00